Time;durP1;ratioP1;P1;durP2;ratioP2;P2;SDS_P1;SDS_P2;PMS_P1;PMS_P2;Temp;Humidity;BMP_temperature;BMP_pressure;BME280_temperature;BME280_humidity;BME280_pressure;Samples;Min_cycle;Max_cycle;Signal;HPM_P1;HPM_P2
2023/11/24 00:00:00;;;;;;;18.23;3.50;;;7.70;99.90;;;;;;4993603;28;20557;-76
2023/11/24 00:02:26;;;;;;;17.88;4.40;;;7.70;99.90;;;;;;4993708;28;20054;-76
2023/11/24 00:04:51;;;;;;;14.48;3.38;;;7.70;99.90;;;;;;4993589;28;20050;-77
2023/11/24 00:07:17;;;;;;;20.48;4.60;;;7.70;99.90;;;;;;4993384;28;20049;-77
2023/11/24 00:09:44;;;;;;;20.45;3.15;;;7.70;99.90;;;;;;4993804;28;20453;-77
2023/11/24 00:12:10;;;;;;;21.73;4.97;;;7.70;99.90;;;;;;4994110;28;20129;-77
2023/11/24 00:14:36;;;;;;;19.52;4.50;;;7.70;99.90;;;;;;4993600;28;20135;-77
2023/11/24 00:17:02;;;;;;;15.98;3.88;;;7.80;99.90;;;;;;4994680;28;20517;-76
2023/11/24 00:19:27;;;;;;;17.80;3.22;;;7.80;99.90;;;;;;4994642;28;20039;-76
2023/11/24 00:21:53;;;;;;;15.90;4.03;;;7.80;99.90;;;;;;4993113;28;20094;-76
2023/11/24 00:24:18;;;;;;;20.10;4.15;;;7.80;99.90;;;;;;4994670;28;20042;-77
2023/11/24 00:26:44;;;;;;;22.70;4.80;;;7.80;99.90;;;;;;4994105;28;20137;-76
2023/11/24 00:29:10;;;;;;;18.50;3.88;;;7.80;99.90;;;;;;4993136;28;20054;-77
2023/11/24 00:31:36;;;;;;;15.25;2.40;;;7.80;99.90;;;;;;4992541;28;20045;-77
2023/11/24 00:34:02;;;;;;;27.42;5.15;;;7.80;99.90;;;;;;4993615;28;20034;-76
2023/11/24 00:36:28;;;;;;;14.10;4.65;;;7.80;99.90;;;;;;4993367;28;20038;-76
2023/11/24 00:38:54;;;;;;;27.10;5.07;;;7.90;99.90;;;;;;4993676;28;20045;-76
2023/11/24 00:41:20;;;;;;;18.08;4.97;;;7.80;99.90;;;;;;4993041;28;20050;-76
2023/11/24 00:43:47;;;;;;;24.85;4.53;;;8.00;99.90;;;;;;4994806;28;20567;-77
2023/11/24 00:46:13;;;;;;;18.05;3.58;;;8.00;99.90;;;;;;4992594;28;20133;-77
2023/11/24 00:48:39;;;;;;;17.45;3.47;;;8.00;99.90;;;;;;4992994;28;20117;-77
2023/11/24 00:51:05;;;;;;;19.50;3.85;;;7.90;99.90;;;;;;4994146;28;20061;-77
2023/11/24 00:53:32;;;;;;;14.80;3.72;;;7.90;99.90;;;;;;4992871;28;20045;-76
2023/11/24 00:55:58;;;;;;;18.55;3.38;;;7.90;99.90;;;;;;4992143;28;20531;-76
2023/11/24 00:58:24;;;;;;;16.05;2.60;;;7.80;99.90;;;;;;4976486;28;20050;-76
2023/11/24 01:00:49;;;;;;;18.33;3.13;;;7.80;99.90;;;;;;4992245;28;20053;-76
2023/11/24 01:03:15;;;;;;;19.65;3.30;;;7.80;99.90;;;;;;4992206;28;20046;-76
2023/11/24 01:05:41;;;;;;;20.50;3.15;;;7.80;99.90;;;;;;4991931;28;20061;-76
2023/11/24 01:08:07;;;;;;;12.68;3.20;;;7.70;99.90;;;;;;4976386;28;20048;-76
2023/11/24 01:10:32;;;;;;;15.90;2.42;;;7.70;99.90;;;;;;4992082;28;20496;-77
2023/11/24 01:12:59;;;;;;;18.70;3.30;;;7.60;99.90;;;;;;4993460;28;20042;-77
2023/11/24 01:15:25;;;;;;;15.02;2.67;;;7.60;99.90;;;;;;4992185;28;20113;-77
2023/11/24 01:17:50;;;;;;;14.18;3.38;;;7.60;99.90;;;;;;4992056;28;20084;-77
2023/11/24 01:20:16;;;;;;;14.90;2.88;;;7.60;99.90;;;;;;4975717;28;20034;-76
2023/11/24 01:22:43;;;;;;;17.55;3.50;;;7.50;99.90;;;;;;4992166;28;20093;-77
2023/11/24 01:25:09;;;;;;;19.77;4.38;;;7.50;99.90;;;;;;4991850;28;20501;-77
2023/11/24 01:27:35;;;;;;;17.88;3.08;;;7.60;99.90;;;;;;4991903;28;20092;-77
2023/11/24 01:30:01;;;;;;;13.82;3.13;;;7.60;99.90;;;;;;4975802;28;20077;-77
2023/11/24 01:32:26;;;;;;;15.65;3.45;;;7.60;99.90;;;;;;4976017;28;20104;-77
2023/11/24 01:34:52;;;;;;;10.38;2.42;;;7.60;99.90;;;;;;4993237;28;20073;-77
2023/11/24 01:37:17;;;;;;;15.93;2.53;;;7.60;99.90;;;;;;4991589;28;20045;-77
2023/11/24 01:39:43;;;;;;;13.57;2.95;;;7.60;99.90;;;;;;4991985;28;20049;-77
2023/11/24 01:42:09;;;;;;;16.48;3.35;;;7.60;99.90;;;;;;4991696;28;20044;-77
2023/11/24 01:44:34;;;;;;;19.42;3.38;;;7.60;99.90;;;;;;4992016;28;20049;-76
2023/11/24 01:47:00;;;;;;;13.80;2.42;;;7.60;99.90;;;;;;4991208;28;20046;-76
2023/11/24 01:49:27;;;;;;;14.02;3.53;;;7.50;99.90;;;;;;4975583;28;20041;-76
2023/11/24 01:51:54;;;;;;;19.90;4.50;;;7.60;99.90;;;;;;4991486;28;20038;-76
2023/11/24 01:54:22;;;;;;;14.93;3.80;;;7.60;99.90;;;;;;4992442;28;20128;-77
2023/11/24 01:56:48;;;;;;;16.92;3.90;;;7.60;99.90;;;;;;4992470;28;20129;-76
2023/11/24 01:59:14;;;;;;;12.88;3.38;;;7.60;99.90;;;;;;4976020;28;20042;-77
2023/11/24 02:01:40;;;;;;;14.73;2.88;;;7.50;99.90;;;;;;4992045;28;20120;-77
2023/11/24 02:04:06;;;;;;;11.55;3.25;;;7.60;99.90;;;;;;4991331;28;20046;-76
2023/11/24 02:06:32;;;;;;;8.93;2.30;;;7.50;99.90;;;;;;4992636;28;20405;-76
2023/11/24 02:08:59;;;;;;;14.55;2.05;;;7.50;99.90;;;;;;4991917;28;20039;-76
2023/11/24 02:11:24;;;;;;;17.27;3.63;;;7.50;99.90;;;;;;4991914;28;20157;-77
2023/11/24 02:13:50;;;;;;;11.60;2.38;;;7.40;99.90;;;;;;4991832;28;20058;-77
2023/11/24 02:16:16;;;;;;;15.48;3.95;;;7.40;99.90;;;;;;4991511;28;20084;-77
2023/11/24 02:18:42;;;;;;;13.52;2.90;;;7.30;99.90;;;;;;4993203;28;20394;-76
2023/11/24 02:21:09;;;;;;;15.15;2.85;;;7.30;99.90;;;;;;4992512;28;20185;-76
2023/11/24 02:23:34;;;;;;;10.63;2.95;;;7.30;99.90;;;;;;4991059;28;20569;-76
2023/11/24 02:26:01;;;;;;;10.93;3.55;;;7.30;99.90;;;;;;4990801;28;20125;-76
2023/11/24 02:28:26;;;;;;;9.63;2.28;;;7.30;99.90;;;;;;4990976;28;20089;-76
2023/11/24 02:30:52;;;;;;;12.70;1.88;;;7.30;99.90;;;;;;4990934;28;20076;-76
2023/11/24 02:33:19;;;;;;;13.75;2.33;;;7.30;99.90;;;;;;4991910;28;20516;-76
2023/11/24 02:35:46;;;;;;;7.68;2.00;;;7.30;99.90;;;;;;4990735;28;20039;-77
2023/11/24 02:38:12;;;;;;;8.93;2.63;;;7.30;99.90;;;;;;4992956;28;20043;-77
2023/11/24 02:40:38;;;;;;;13.05;1.60;;;7.20;99.90;;;;;;4974701;28;20453;-76
2023/11/24 02:43:06;;;;;;;16.00;3.67;;;7.20;99.90;;;;;;4991474;28;20054;-77
2023/11/24 02:45:31;;;;;;;7.10;2.28;;;7.20;99.90;;;;;;4974641;28;20042;-76
2023/11/24 02:47:57;;;;;;;10.45;2.42;;;7.20;99.90;;;;;;4991102;28;20097;-77
2023/11/24 02:50:23;;;;;;;13.60;3.25;;;7.20;99.90;;;;;;4990783;28;20073;-77
2023/11/24 02:52:49;;;;;;;10.85;2.10;;;7.30;99.90;;;;;;4991969;28;20090;-77
2023/11/24 02:55:15;;;;;;;12.02;2.88;;;7.30;99.90;;;;;;4994315;28;20038;-77
2023/11/24 02:57:41;;;;;;;11.50;1.80;;;7.40;99.90;;;;;;4994772;28;20085;-77
2023/11/24 03:00:08;;;;;;;8.95;2.67;;;7.30;99.90;;;;;;4997118;28;20089;-76
2023/11/24 03:02:33;;;;;;;10.45;3.35;;;7.40;99.90;;;;;;4996524;28;20093;-76
2023/11/24 03:04:59;;;;;;;8.88;1.63;;;7.40;99.90;;;;;;4980471;28;20046;-77
2023/11/24 03:07:24;;;;;;;14.55;2.25;;;7.40;99.90;;;;;;5011966;28;20123;-77
2023/11/24 03:09:50;;;;;;;8.80;1.80;;;7.40;99.90;;;;;;5005381;28;20038;-77
2023/11/24 03:12:16;;;;;;;9.35;1.67;;;7.40;99.90;;;;;;5011619;28;20479;-77
2023/11/24 03:14:42;;;;;;;10.52;1.92;;;7.50;99.90;;;;;;4995096;28;20038;-77
2023/11/24 03:17:10;;;;;;;11.07;2.70;;;7.50;99.90;;;;;;5014619;28;20042;-77
2023/11/24 03:19:35;;;;;;;12.02;2.65;;;7.50;99.90;;;;;;5013852;28;20046;-76
2023/11/24 03:22:01;;;;;;;7.78;2.53;;;7.60;99.90;;;;;;5014505;28;20052;-76
2023/11/24 03:24:27;;;;;;;5.82;1.55;;;7.50;99.90;;;;;;5006481;28;20128;-75
2023/11/24 03:26:52;;;;;;;11.35;2.45;;;7.30;99.90;;;;;;5013703;28;20044;-77
2023/11/24 03:29:18;;;;;;;5.88;1.40;;;7.20;99.90;;;;;;5013979;28;20124;-76
2023/11/24 03:31:44;;;;;;;6.50;1.02;;;7.10;99.90;;;;;;5006037;28;20128;-76
2023/11/24 03:34:10;;;;;;;7.57;1.25;;;7.00;99.90;;;;;;5014511;28;20132;-77
2023/11/24 03:36:36;;;;;;;4.65;1.00;;;7.00;99.90;;;;;;5013735;28;20042;-77
2023/11/24 03:39:02;;;;;;;8.27;1.60;;;7.00;99.90;;;;;;5014418;28;20064;-77
2023/11/24 03:41:27;;;;;;;9.75;1.10;;;6.90;99.90;;;;;;5013851;28;20048;-76
2023/11/24 03:43:53;;;;;;;3.80;1.00;;;6.90;99.90;;;;;;4997855;28;20133;-77
2023/11/24 03:46:18;;;;;;;3.95;1.02;;;6.90;99.90;;;;;;5013329;28;20045;-77
2023/11/24 03:48:44;;;;;;;8.43;1.25;;;6.90;99.90;;;;;;5013281;28;20038;-76
2023/11/24 03:51:10;;;;;;;9.50;1.50;;;6.80;99.90;;;;;;5013164;28;20409;-76
2023/11/24 03:53:36;;;;;;;5.50;0.80;;;6.80;99.90;;;;;;5014161;28;20512;-77
2023/11/24 03:56:02;;;;;;;9.73;2.03;;;6.70;99.90;;;;;;5013664;28;20046;-76
2023/11/24 03:58:27;;;;;;;4.25;1.10;;;6.70;99.90;;;;;;5014163;28;20051;-76
2023/11/24 04:00:53;;;;;;;8.80;1.77;;;6.70;99.90;;;;;;4989536;28;20124;-77
2023/11/24 04:03:19;;;;;;;5.68;1.40;;;6.50;99.90;;;;;;5000902;28;20034;-77
2023/11/24 04:05:46;;;;;;;7.22;1.58;;;6.50;99.90;;;;;;4992872;28;20043;-77
2023/11/24 04:08:12;;;;;;;10.35;1.67;;;6.50;99.90;;;;;;4994316;28;20069;-77
2023/11/24 04:10:38;;;;;;;7.28;1.40;;;6.60;99.90;;;;;;4993842;28;20494;-77
2023/11/24 04:13:03;;;;;;;4.93;1.98;;;6.50;99.90;;;;;;4977921;28;20505;-77
2023/11/24 04:15:29;;;;;;;6.90;1.75;;;6.50;99.90;;;;;;4993906;28;20038;-77
2023/11/24 04:17:54;;;;;;;8.85;1.40;;;6.60;99.90;;;;;;4993971;28;20046;-77
2023/11/24 04:20:20;;;;;;;6.28;1.38;;;6.50;99.90;;;;;;4993532;28;20132;-77
2023/11/24 04:22:46;;;;;;;11.13;2.25;;;6.60;99.90;;;;;;4993690;28;20042;-77
2023/11/24 04:25:12;;;;;;;11.57;3.28;;;6.60;99.90;;;;;;4985100;28;20129;-77
2023/11/24 04:27:37;;;;;;;11.15;1.63;;;6.60;99.90;;;;;;5012462;28;20699;-77
2023/11/24 04:30:04;;;;;;;9.55;1.95;;;6.60;99.90;;;;;;5013109;28;20061;-77
2023/11/24 04:32:30;;;;;;;6.40;1.60;;;6.50;99.90;;;;;;4996092;28;20076;-76
2023/11/24 04:34:56;;;;;;;8.23;1.13;;;6.60;99.90;;;;;;5012795;28;20073;-76
2023/11/24 04:37:22;;;;;;;9.40;1.52;;;6.50;99.90;;;;;;5012883;28;20107;-77
2023/11/24 04:39:47;;;;;;;11.55;2.03;;;6.40;99.90;;;;;;5013707;28;20091;-77
2023/11/24 04:42:14;;;;;;;7.40;1.50;;;6.40;99.90;;;;;;5013033;28;20042;-77
2023/11/24 04:44:41;;;;;;;5.63;1.30;;;6.40;99.90;;;;;;5012746;28;20056;-77
2023/11/24 04:47:07;;;;;;;12.57;1.88;;;6.40;99.90;;;;;;5012787;28;20042;-77
2023/11/24 04:49:32;;;;;;;11.98;2.20;;;6.40;99.90;;;;;;5012641;28;20120;-76
2023/11/24 04:51:59;;;;;;;8.02;1.75;;;6.30;99.90;;;;;;5013158;28;20077;-77
2023/11/24 04:54:25;;;;;;;4.22;1.33;;;6.30;99.90;;;;;;5012786;28;20052;-77
2023/11/24 04:56:50;;;;;;;9.60;1.52;;;6.30;99.90;;;;;;5012774;28;20128;-77
2023/11/24 04:59:16;;;;;;;7.28;1.65;;;6.20;99.90;;;;;;5014484;28;20042;-77
2023/11/24 05:01:42;;;;;;;6.68;1.50;;;6.20;99.90;;;;;;5012882;28;20553;-77
2023/11/24 05:04:08;;;;;;;6.13;1.35;;;6.20;99.90;;;;;;5013427;28;20089;-77
2023/11/24 05:06:33;;;;;;;5.32;1.45;;;6.20;99.90;;;;;;5012933;28;20441;-76
2023/11/24 05:09:01;;;;;;;9.50;1.67;;;6.10;99.90;;;;;;4996180;28;20121;-77
2023/11/24 05:11:27;;;;;;;9.18;1.20;;;6.10;99.90;;;;;;5012581;28;20046;-78
2023/11/24 05:13:52;;;;;;;6.63;1.05;;;6.10;99.90;;;;;;5011999;28;20567;-77
2023/11/24 05:16:18;;;;;;;8.65;1.10;;;5.90;99.90;;;;;;5011340;28;20475;-77
2023/11/24 05:18:44;;;;;;;5.10;1.20;;;6.00;99.90;;;;;;5011572;28;20033;-77
2023/11/24 05:21:09;;;;;;;7.85;2.08;;;5.90;99.90;;;;;;5011442;28;20554;-77
2023/11/24 05:23:35;;;;;;;6.90;1.25;;;5.80;99.90;;;;;;5011489;28;20076;-77
2023/11/24 05:26:01;;;;;;;8.80;2.40;;;5.80;99.90;;;;;;4995094;28;20041;-77
2023/11/24 05:28:27;;;;;;;5.70;1.30;;;5.80;99.90;;;;;;5012066;28;20042;-77
2023/11/24 05:30:53;;;;;;;3.53;1.45;;;5.80;99.90;;;;;;5012556;28;20049;-77
2023/11/24 05:33:18;;;;;;;6.28;1.25;;;5.90;99.90;;;;;;5012093;28;20034;-77
2023/11/24 05:35:44;;;;;;;5.03;1.02;;;5.80;99.90;;;;;;5012006;28;20077;-77
2023/11/24 05:38:09;;;;;;;7.25;1.70;;;5.80;99.90;;;;;;5012162;28;20148;-77
2023/11/24 05:40:35;;;;;;;6.63;1.85;;;5.80;99.90;;;;;;4995635;28;20470;-77
2023/11/24 05:43:01;;;;;;;3.50;1.40;;;5.90;99.90;;;;;;4995010;28;20501;-77
2023/11/24 05:45:27;;;;;;;9.18;1.92;;;5.80;99.90;;;;;;4995503;28;20046;-78
2023/11/24 05:47:52;;;;;;;10.75;2.58;;;5.90;99.90;;;;;;5012702;28;20416;-77
2023/11/24 05:50:22;;;;;;;4.88;1.40;;;5.80;99.90;;;;;;5011175;28;20034;-77
2023/11/24 05:52:48;;;;;;;8.90;1.27;;;5.90;99.90;;;;;;4995791;28;20470;-77
2023/11/24 05:55:15;;;;;;;5.88;1.20;;;5.80;99.90;;;;;;4994886;28;20064;-77
2023/11/24 05:57:41;;;;;;;5.75;2.22;;;6.00;99.90;;;;;;5011151;28;20073;-77
2023/11/24 06:00:09;;;;;;;12.52;2.78;;;6.00;99.90;;;;;;5011508;28;20468;-77
2023/11/24 06:02:35;;;;;;;9.93;2.13;;;5.90;99.90;;;;;;5011440;28;20038;-77
2023/11/24 06:05:01;;;;;;;7.35;1.23;;;5.90;99.90;;;;;;5011912;28;20049;-78
2023/11/24 06:07:27;;;;;;;3.88;0.98;;;6.00;99.90;;;;;;4995548;28;20505;-78
2023/11/24 06:09:52;;;;;;;6.03;1.02;;;5.90;99.90;;;;;;5010942;28;20041;-77
2023/11/24 06:12:18;;;;;;;4.38;0.73;;;5.90;99.90;;;;;;5012226;28;20037;-77
2023/11/24 06:14:44;;;;;;;3.80;1.33;;;5.90;99.90;;;;;;4995905;28;20041;-78
2023/11/24 06:17:09;;;;;;;6.70;1.88;;;5.80;99.90;;;;;;5011111;28;20037;-77
2023/11/24 06:19:35;;;;;;;8.30;1.25;;;5.90;99.90;;;;;;4994595;28;20072;-77
2023/11/24 06:22:01;;;;;;;10.73;1.42;;;5.80;99.90;;;;;;5010937;28;20044;-76
2023/11/24 06:24:27;;;;;;;7.32;1.83;;;5.80;99.90;;;;;;4994743;28;20041;-77
2023/11/24 06:26:52;;;;;;;6.53;1.50;;;5.80;99.90;;;;;;5010374;28;20186;-76
2023/11/24 06:29:18;;;;;;;9.05;2.45;;;5.70;99.90;;;;;;5012382;28;20060;-77
2023/11/24 06:31:43;;;;;;;9.32;1.83;;;5.70;99.90;;;;;;5015690;28;20410;-76
2023/11/24 06:34:09;;;;;;;13.68;3.03;;;5.70;99.90;;;;;;5015433;28;20429;-77
2023/11/24 06:36:36;;;;;;;10.55;2.05;;;5.80;99.90;;;;;;5015331;28;20038;-79
2023/11/24 06:39:03;;;;;;;12.70;1.90;;;5.90;99.90;;;;;;4999291;28;20042;-77
2023/11/24 06:41:28;;;;;;;13.75;2.33;;;5.80;99.90;;;;;;5015712;28;20046;-77
2023/11/24 06:43:54;;;;;;;8.93;2.55;;;5.90;99.90;;;;;;5014540;28;20072;-77
2023/11/24 06:46:21;;;;;;;18.55;2.90;;;5.80;99.90;;;;;;5014135;28;20076;-77
2023/11/24 06:48:52;;;;;;;6.20;1.85;;;6.00;99.90;;;;;;5014801;28;20150;-77
2023/11/24 06:51:21;;;;;;;8.85;2.08;;;5.90;99.90;;;;;;5014494;28;20092;-77
2023/11/24 06:53:47;;;;;;;10.73;2.55;;;5.90;99.90;;;;;;5014629;28;20092;-77
2023/11/24 06:56:13;;;;;;;12.38;2.00;;;5.80;99.90;;;;;;5014317;28;20034;-77
2023/11/24 06:58:38;;;;;;;8.43;1.70;;;5.90;99.90;;;;;;5014611;28;20459;-76
2023/11/24 07:01:07;;;;;;;20.65;3.10;;;5.90;99.90;;;;;;5014471;28;20464;-77
2023/11/24 07:03:33;;;;;;;11.45;2.55;;;5.90;99.90;;;;;;5014563;28;20409;-76
2023/11/24 07:06:00;;;;;;;7.50;2.88;;;5.90;99.90;;;;;;5014317;28;20077;-77
2023/11/24 07:08:27;;;;;;;9.18;2.33;;;6.00;99.90;;;;;;5014160;28;20046;-77
2023/11/24 07:10:53;;;;;;;13.27;2.60;;;6.00;99.90;;;;;;5014772;28;20509;-77
2023/11/24 07:13:20;;;;;;;12.60;2.35;;;5.90;99.90;;;;;;5014041;28;20135;-77
2023/11/24 07:15:47;;;;;;;10.93;1.58;;;6.00;99.90;;;;;;5014270;28;20038;-77
2023/11/24 07:18:13;;;;;;;6.97;2.50;;;5.90;99.90;;;;;;5014437;28;20099;-77
2023/11/24 07:20:38;;;;;;;12.70;3.85;;;5.90;99.90;;;;;;4997699;28;20045;-77
2023/11/24 07:23:04;;;;;;;11.90;1.98;;;5.90;99.90;;;;;;5013821;28;20091;-77
2023/11/24 07:25:30;;;;;;;11.20;2.42;;;5.90;99.90;;;;;;5013881;28;20429;-77
2023/11/24 07:27:56;;;;;;;11.25;1.60;;;5.80;99.90;;;;;;5036519;23;20042;-75
2023/11/24 07:30:25;;;;;;;11.68;2.38;;;5.80;99.90;;;;;;5013650;28;20046;-75
2023/11/24 07:32:51;;;;;;;9.60;2.10;;;5.80;99.90;;;;;;5013079;28;20042;-76
2023/11/24 07:35:16;;;;;;;14.82;1.92;;;5.80;99.90;;;;;;5013928;28;20409;-76
2023/11/24 07:37:42;;;;;;;19.23;3.00;;;5.80;99.90;;;;;;5013233;28;20048;-74
2023/11/24 07:40:13;;;;;;;14.52;3.60;;;5.90;99.90;;;;;;5014659;28;20125;-75
2023/11/24 07:42:40;;;;;;;9.30;3.55;;;6.00;99.90;;;;;;5014791;28;20050;-75
2023/11/24 07:45:09;;;;;;;12.50;2.65;;;6.00;99.90;;;;;;4996753;28;20095;-74
2023/11/24 07:47:34;;;;;;;11.63;3.05;;;6.10;99.90;;;;;;5013248;28;20041;-74
2023/11/24 07:50:00;;;;;;;7.13;2.17;;;6.10;99.90;;;;;;5013058;28;20056;-75
2023/11/24 07:52:26;;;;;;;12.20;2.65;;;6.10;99.90;;;;;;5014283;28;20038;-75
2023/11/24 07:54:52;;;;;;;10.45;2.70;;;6.20;99.90;;;;;;5014255;28;20038;-75
2023/11/24 07:57:18;;;;;;;10.75;2.55;;;6.20;99.90;;;;;;5013088;28;20042;-74
2023/11/24 07:59:44;;;;;;;9.93;3.15;;;6.20;99.90;;;;;;5013277;28;20052;-75
2023/11/24 08:02:09;;;;;;;11.85;2.40;;;6.30;99.90;;;;;;5013354;28;20133;-76
2023/11/24 08:04:35;;;;;;;14.65;2.97;;;6.30;99.90;;;;;;5012929;28;20517;-75
2023/11/24 08:07:00;;;;;;;12.35;3.35;;;6.40;99.90;;;;;;5012564;28;20454;-74
2023/11/24 08:09:26;;;;;;;10.48;3.55;;;6.50;99.90;;;;;;5014253;28;20049;-75
2023/11/24 08:11:51;;;;;;;17.65;2.53;;;6.40;99.90;;;;;;5014367;28;20045;-74
2023/11/24 08:14:23;;;;;;;11.88;2.63;;;6.50;99.90;;;;;;5013127;28;20113;-74
2023/11/24 08:16:49;;;;;;;10.10;3.08;;;6.50;99.90;;;;;;4996223;28;20046;-75
2023/11/24 08:19:17;;;;;;;10.27;2.35;;;6.50;99.90;;;;;;5014058;28;20112;-75
2023/11/24 08:21:42;;;;;;;12.63;2.45;;;6.50;99.90;;;;;;5012609;28;20049;-75
2023/11/24 08:24:10;;;;;;;9.23;2.35;;;6.60;99.90;;;;;;5012653;28;20038;-75
2023/11/24 08:26:36;;;;;;;11.15;2.45;;;6.60;99.90;;;;;;5013643;28;20476;-74
2023/11/24 08:29:03;;;;;;;15.35;2.45;;;6.70;99.90;;;;;;5013744;28;20056;-74
2023/11/24 08:31:29;;;;;;;18.15;2.85;;;6.70;99.90;;;;;;5013830;28;20038;-74
2023/11/24 08:33:54;;;;;;;9.95;2.58;;;6.80;99.90;;;;;;5013730;28;20497;-74
2023/11/24 08:36:20;;;;;;;15.35;3.10;;;6.80;99.90;;;;;;5012049;28;20046;-75
2023/11/24 08:38:45;;;;;;;8.05;2.13;;;6.70;99.90;;;;;;5014066;28;20041;-74
2023/11/24 08:41:13;;;;;;;9.98;1.52;;;6.60;99.90;;;;;;5012356;28;20034;-74
2023/11/24 08:43:42;;;;;;;9.18;1.60;;;6.60;99.90;;;;;;5012394;28;20046;-75
2023/11/24 08:46:08;;;;;;;5.38;1.27;;;6.50;99.90;;;;;;5011965;28;20049;-74
2023/11/24 08:48:35;;;;;;;3.60;1.40;;;6.50;99.90;;;;;;5011911;28;20077;-74
2023/11/24 08:51:01;;;;;;;7.15;1.75;;;6.50;99.90;;;;;;4995434;28;20103;-74
2023/11/24 08:53:27;;;;;;;7.97;1.13;;;6.50;99.90;;;;;;4974408;28;20554;-75
2023/11/24 08:55:53;;;;;;;5.72;1.15;;;6.50;99.90;;;;;;4988698;28;20409;-74
2023/11/24 08:58:19;;;;;;;11.10;1.70;;;6.50;99.90;;;;;;4991964;28;20043;-74
2023/11/24 09:00:45;;;;;;;12.20;2.72;;;6.60;99.90;;;;;;4993548;28;20472;-74
2023/11/24 09:03:12;;;;;;;7.85;1.25;;;6.60;99.90;;;;;;4993278;28;20092;-74
2023/11/24 09:05:38;;;;;;;9.50;2.33;;;6.70;99.90;;;;;;4992066;28;20038;-75
2023/11/24 09:08:05;;;;;;;8.13;1.60;;;6.60;99.90;;;;;;4993453;28;20048;-74
2023/11/24 09:10:32;;;;;;;4.60;1.30;;;6.60;99.90;;;;;;4993399;28;20061;-75
2023/11/24 09:12:57;;;;;;;10.60;1.75;;;6.70;99.90;;;;;;4992136;28;20089;-74
2023/11/24 09:15:24;;;;;;;9.52;1.90;;;6.70;99.90;;;;;;4975280;28;20043;-74
2023/11/24 09:17:50;;;;;;;11.68;2.53;;;6.70;99.90;;;;;;4992001;28;20434;-75
2023/11/24 09:20:19;;;;;;;8.80;2.67;;;6.70;99.90;;;;;;4991936;28;20046;-75
2023/11/24 09:22:45;;;;;;;10.95;3.53;;;6.70;99.90;;;;;;4988963;28;20110;-74
2023/11/24 09:25:11;;;;;;;8.63;1.90;;;6.90;99.90;;;;;;4994228;28;20101;-74
2023/11/24 09:27:41;;;;;;;11.00;2.00;;;7.00;99.90;;;;;;4991827;28;20042;-74
2023/11/24 09:30:08;;;;;;;8.98;2.00;;;7.00;99.90;;;;;;4993372;28;20117;-74
2023/11/24 09:32:35;;;;;;;11.10;2.22;;;7.00;99.90;;;;;;4993177;28;20494;-74
2023/11/24 09:35:04;;;;;;;16.73;2.58;;;7.00;99.90;;;;;;4992911;28;20457;-74
2023/11/24 09:37:30;;;;;;;13.93;2.42;;;7.20;99.90;;;;;;4993030;28;20061;-74
2023/11/24 09:39:56;;;;;;;12.27;2.35;;;7.30;99.90;;;;;;4991829;28;20046;-73
2023/11/24 09:42:23;;;;;;;12.45;2.53;;;7.40;99.90;;;;;;4991732;28;20114;-74
2023/11/24 09:44:54;;;;;;;8.07;1.65;;;7.30;99.90;;;;;;4991771;28;20108;-74
2023/11/24 09:47:20;;;;;;;9.70;2.08;;;7.20;99.90;;;;;;4992539;28;20043;-74
2023/11/24 09:49:47;;;;;;;12.27;3.08;;;7.10;99.90;;;;;;4991565;28;20085;-74
2023/11/24 09:52:14;;;;;;;14.48;5.03;;;6.90;99.90;;;;;;4992835;28;20046;-74
2023/11/24 09:54:41;;;;;;;15.23;2.63;;;6.80;99.90;;;;;;4992617;28;20414;-74
2023/11/24 09:57:07;;;;;;;13.93;3.97;;;6.80;99.90;;;;;;4991439;28;20050;-73
2023/11/24 09:59:33;;;;;;;10.55;2.70;;;6.90;99.90;;;;;;4991233;28;20049;-74
2023/11/24 10:01:59;;;;;;;13.07;2.55;;;7.10;99.90;;;;;;4992812;28;20046;-74
2023/11/24 10:04:26;;;;;;;13.48;2.92;;;7.30;99.90;;;;;;4992687;28;20616;-74
2023/11/24 10:06:54;;;;;;;10.98;3.53;;;7.20;99.90;;;;;;4991014;28;20512;-74
2023/11/24 10:09:25;;;;;;;14.57;2.22;;;7.20;99.90;;;;;;4992526;28;20138;-75
2023/11/24 10:11:51;;;;;;;11.18;2.92;;;6.70;99.90;;;;;;4991212;28;20042;-74
2023/11/24 10:14:20;;;;;;;17.48;3.55;;;6.50;99.90;;;;;;4992383;28;20061;-73
2023/11/24 10:16:48;;;;;;;18.83;4.07;;;6.30;99.90;;;;;;4992264;28;20050;-74
2023/11/24 10:19:16;;;;;;;20.27;4.43;;;6.40;99.90;;;;;;4992279;28;20042;-74
2023/11/24 10:21:45;;;;;;;6.93;1.58;;;6.30;99.90;;;;;;4992510;28;20096;-74
2023/11/24 10:24:11;;;;;;;9.40;1.98;;;6.30;99.90;;;;;;4992436;28;20102;-75
2023/11/24 10:26:40;;;;;;;13.27;1.70;;;6.30;99.90;;;;;;4991900;28;20092;-74
2023/11/24 10:29:07;;;;;;;7.63;1.98;;;6.40;99.90;;;;;;4974714;28;20134;-74
2023/11/24 10:31:32;;;;;;;11.77;1.70;;;6.40;99.90;;;;;;4992418;28;20034;-74
2023/11/24 10:33:59;;;;;;;7.75;1.80;;;6.40;99.90;;;;;;4992311;28;20038;-75
2023/11/24 10:36:24;;;;;;;6.53;1.63;;;6.40;99.90;;;;;;4992009;28;20441;-74
2023/11/24 10:39:03;;;;;;;4.88;0.93;;;6.30;99.90;;;;;;4992243;28;20041;-74
2023/11/24 10:41:29;;;;;;;7.70;1.65;;;6.20;99.90;;;;;;4991144;28;20046;-74
2023/11/24 10:43:56;;;;;;;8.13;1.08;;;6.20;99.90;;;;;;4991072;28;20053;-74
2023/11/24 10:46:27;;;;;;;9.50;1.30;;;6.30;99.90;;;;;;4992122;28;20042;-74
2023/11/24 10:49:06;;;;;;;6.75;1.00;;;6.40;99.90;;;;;;4990915;28;20561;-74
2023/11/24 10:51:46;;;;;;;3.13;0.70;;;6.30;99.90;;;;;;4991190;28;20069;-74
2023/11/24 10:54:29;;;;;;;7.85;2.00;;;6.10;99.90;;;;;;4992316;28;20045;-74
2023/11/24 10:56:57;;;;;;;5.70;0.98;;;6.00;99.90;;;;;;4992041;28;20118;-75
2023/11/24 10:59:24;;;;;;;5.68;1.05;;;5.90;99.90;;;;;;4990813;28;20054;-74
2023/11/24 11:01:50;;;;;;;6.85;1.80;;;5.90;99.90;;;;;;4992025;28;20433;-74
2023/11/24 11:04:16;;;;;;;8.95;2.03;;;5.90;99.90;;;;;;4992220;28;20038;-74
2023/11/24 11:06:48;;;;;;;10.07;2.08;;;5.70;99.90;;;;;;4991851;28;20042;-74
2023/11/24 11:12:02;;;;;;;6.43;1.60;;;5.30;99.90;;;;;;4992079;28;20046;-74
2023/11/24 11:14:28;;;;;;;5.88;0.93;;;5.20;99.90;;;;;;4992229;28;20041;-74
2023/11/24 11:16:54;;;;;;;3.45;1.02;;;5.20;99.90;;;;;;4978014;28;20049;-74
2023/11/24 11:19:43;;;;;;;8.18;1.02;;;5.10;99.90;;;;;;4994332;28;20413;-74
2023/11/24 11:22:12;;;;;;;11.27;2.50;;;5.20;99.90;;;;;;4994507;28;20042;-74
2023/11/24 11:24:38;;;;;;;11.13;1.98;;;5.20;99.90;;;;;;4995490;28;20053;-73
2023/11/24 11:27:22;;;;;;;10.70;2.67;;;5.20;99.90;;;;;;4995046;28;20514;-73
2023/11/24 11:29:47;;;;;;;12.85;2.22;;;5.30;99.90;;;;;;4995582;28;20038;-73
2023/11/24 11:32:13;;;;;;;19.10;3.28;;;5.20;99.90;;;;;;4978056;28;20034;-74
2023/11/24 11:34:39;;;;;;;7.22;1.85;;;5.40;99.90;;;;;;4993980;28;20486;-73
2023/11/24 11:37:11;;;;;;;14.45;2.97;;;5.40;99.90;;;;;;5000039;28;20053;-72
2023/11/24 11:39:53;;;;;;;15.20;3.28;;;5.60;99.90;;;;;;5001448;28;20031;-72
2023/11/24 11:42:23;;;;;;;9.20;3.15;;;5.80;99.90;;;;;;4994122;28;20105;-72
2023/11/24 11:44:56;;;;;;;11.25;2.55;;;6.00;99.90;;;;;;4995060;28;20050;-72
2023/11/24 11:47:26;;;;;;;;;;;6.10;99.90;;;;;;4995462;28;20121;-72
2023/11/24 11:49:54;;;;;;;10.68;1.88;;;6.30;99.90;;;;;;4994901;28;19918;-72
2023/11/24 11:52:25;;;;;;;6.78;1.95;;;6.30;99.90;;;;;;4994982;28;20073;-72
2023/11/24 11:54:52;;;;;;;3.60;1.20;;;6.40;99.90;;;;;;4994961;28;20038;-73
2023/11/24 11:57:20;;;;;;;8.25;2.95;;;6.40;99.90;;;;;;4988306;28;20030;-72
2023/11/24 11:59:47;;;;;;;13.23;2.60;;;6.50;99.90;;;;;;5000507;28;20051;-73
2023/11/24 12:02:17;;;;;;;8.90;2.25;;;6.70;99.90;;;;;;4981636;28;20089;-72
2023/11/24 12:04:44;;;;;;;13.27;2.20;;;6.70;99.90;;;;;;4985205;28;20050;-72
2023/11/24 12:07:11;;;;;;;10.10;1.20;;;6.70;99.90;;;;;;4994676;28;20117;-72
2023/11/24 12:09:37;;;;;;;11.48;2.10;;;6.50;99.90;;;;;;4984217;28;20398;-74
2023/11/24 12:12:03;;;;;;;4.80;1.30;;;6.30;99.90;;;;;;4978975;28;20127;-72
2023/11/24 12:14:29;;;;;;;8.00;2.08;;;6.20;99.90;;;;;;4999879;28;20402;-72
2023/11/24 12:16:56;;;;;;;15.88;1.85;;;6.00;99.90;;;;;;4974656;28;20043;-72
2023/11/24 12:19:29;;;;;;;9.70;2.42;;;6.00;99.90;;;;;;4974777;28;20043;-72
2023/11/24 12:21:57;;;;;;;7.30;1.48;;;5.90;99.90;;;;;;4975208;28;20090;-72
2023/11/24 12:24:26;;;;;;;7.15;2.05;;;6.00;99.90;;;;;;4982665;28;20031;-72
2023/11/24 12:26:54;;;;;;;5.53;2.33;;;6.00;99.90;;;;;;4976005;28;20124;-74
2023/11/24 12:29:19;;;;;;;12.52;2.05;;;6.10;99.90;;;;;;4990812;28;20586;-73
2023/11/24 12:31:45;;;;;;;10.13;1.83;;;6.10;99.90;;;;;;4988113;28;20047;-73
2023/11/24 12:34:22;;;;;;;8.70;1.77;;;6.10;99.90;;;;;;4991868;28;20502;-74
2023/11/24 12:36:48;;;;;;;13.15;2.78;;;6.00;99.90;;;;;;4992601;28;20042;-74
2023/11/24 12:39:14;;;;;;;17.95;3.65;;;6.10;99.90;;;;;;4992855;28;20097;-73
2023/11/24 12:41:44;;;;;;;13.65;2.72;;;6.20;99.90;;;;;;4994052;28;20045;-73
2023/11/24 12:44:10;;;;;;;18.88;2.67;;;6.30;99.90;;;;;;4993829;28;20468;-74
2023/11/24 12:46:38;;;;;;;7.93;1.75;;;6.40;99.90;;;;;;4993739;28;20031;-73
2023/11/24 12:49:04;;;;;;;19.50;3.65;;;6.40;99.90;;;;;;4992749;28;20045;-73
2023/11/24 12:51:32;;;;;;;11.35;3.17;;;6.40;99.90;;;;;;4993850;28;20121;-73